Time;durP1;ratioP1;P1;durP2;ratioP2;P2;SDS_P1;SDS_P2;PMS_P1;PMS_P2;Temp;Humidity;BMP_temperature;BMP_pressure;BME280_temperature;BME280_humidity;BME280_pressure;Samples;Min_cycle;Max_cycle;Signal;HPM_P1;HPM_P2
2023/07/19 00:00:39;;;;;;;4.75;3.60;;;17.80;99.90;;;17.74;100.00;97005.53;5033445;28;20037;-36
2023/07/19 00:03:05;;;;;;;4.95;4.10;;;17.90;99.90;;;17.68;100.00;96994.47;5029847;28;20021;-37
2023/07/19 00:05:31;;;;;;;4.97;3.83;;;17.90;99.90;;;17.80;100.00;97006.03;5028138;28;20031;-37
2023/07/19 00:07:57;;;;;;;5.40;4.15;;;17.90;99.90;;;17.82;100.00;97001.44;5031836;28;20032;-36
2023/07/19 00:10:23;;;;;;;7.43;4.10;;;17.90;99.90;;;17.89;100.00;97008.94;5028966;28;21593;-36
2023/07/19 00:12:49;;;;;;;6.25;4.20;;;18.00;99.90;;;17.94;100.00;97008.59;5027532;28;20540;-36
2023/07/19 00:15:16;;;;;;;7.05;4.65;;;18.00;99.90;;;17.92;100.00;97016.69;5028076;28;20025;-37
2023/07/19 00:17:44;;;;;;;7.05;4.53;;;18.10;99.90;;;17.93;100.00;97012.25;5030114;28;20030;-36
2023/07/19 00:20:11;;;;;;;5.78;4.00;;;18.10;99.90;;;17.95;100.00;97004.97;5027943;28;20033;-37
2023/07/19 00:22:38;;;;;;;5.50;3.67;;;18.00;99.90;;;17.92;100.00;97006.03;5024702;28;20033;-36
2023/07/19 00:25:05;;;;;;;5.05;4.07;;;18.00;99.90;;;17.87;100.00;96992.22;5026416;28;20485;-36
2023/07/19 00:27:30;;;;;;;4.90;3.90;;;18.00;99.90;;;17.89;100.00;96997.41;5025015;28;20033;-37
2023/07/19 00:29:56;;;;;;;6.60;4.40;;;18.00;99.90;;;17.85;100.00;97003.91;5024871;28;20083;-36
2023/07/19 00:32:22;;;;;;;7.25;4.18;;;18.00;99.90;;;17.84;100.00;97002.22;5027892;28;20059;-36
2023/07/19 00:34:47;;;;;;;5.47;3.78;;;18.00;99.90;;;17.82;100.00;96998.78;5030073;28;20021;-39
2023/07/19 00:37:13;;;;;;;5.70;3.80;;;18.00;99.90;;;17.78;100.00;96997.31;5029034;28;20037;-37
2023/07/19 00:39:39;;;;;;;4.60;3.55;;;17.90;99.90;;;17.72;100.00;96990.59;5029323;28;20553;-37
2023/07/19 00:42:05;;;;;;;5.32;3.65;;;17.90;99.90;;;17.66;100.00;96993.72;5028164;28;20028;-37
2023/07/19 00:44:31;;;;;;;5.95;3.58;;;17.80;99.90;;;17.56;100.00;96986.38;5027915;28;20033;-36
2023/07/19 00:46:59;;;;;;;6.10;4.13;;;17.70;99.90;;;17.57;100.00;96995.25;5024233;28;20041;-37
2023/07/19 00:49:25;;;;;;;4.70;3.85;;;17.70;99.90;;;17.50;100.00;96984.16;5044882;28;20048;-36
2023/07/19 00:51:51;;;;;;;5.45;3.95;;;17.70;99.90;;;17.53;100.00;96989.28;5027583;28;20044;-36
2023/07/19 00:54:17;;;;;;;5.60;3.70;;;17.70;99.90;;;17.51;100.00;96988.50;5024331;28;20040;-37
2023/07/19 00:56:43;;;;;;;4.28;3.80;;;17.60;99.90;;;17.49;100.00;96992.25;5026981;28;20118;-38
2023/07/19 00:59:12;;;;;;;7.43;4.60;;;17.60;99.90;;;17.53;100.00;96994.59;5027099;28;20037;-36
2023/07/19 01:01:38;;;;;;;6.18;4.22;;;17.60;99.90;;;17.55;100.00;96994.50;5025693;28;20124;-37
2023/07/19 01:04:04;;;;;;;6.40;4.13;;;17.70;99.90;;;17.58;100.00;96993.41;5025387;28;20119;-36
2023/07/19 01:06:30;;;;;;;8.35;4.55;;;17.70;99.90;;;17.55;100.00;96984.69;5029361;28;20106;-36
2023/07/19 01:08:55;;;;;;;8.60;4.82;;;17.70;99.90;;;17.53;100.00;96973.28;5029180;28;20026;-36
2023/07/19 01:11:21;;;;;;;5.47;4.13;;;17.60;99.90;;;17.55;100.00;96994.50;5028994;28;20028;-37
2023/07/19 01:13:53;;;;;;;4.93;3.92;;;17.70;99.90;;;17.50;100.00;97005.47;5027422;28;20405;-36
2023/07/19 01:16:20;;;;;;;6.47;4.47;;;17.60;99.90;;;17.47;100.00;97002.19;5024379;28;20281;-36
2023/07/19 01:18:47;;;;;;;5.38;4.03;;;17.60;99.90;;;17.32;100.00;96980.16;5026397;28;20033;-36
2023/07/19 01:21:12;;;;;;;5.82;4.35;;;17.50;99.90;;;17.37;100.00;96993.97;5030272;28;20440;-37
2023/07/19 01:23:39;;;;;;;6.38;4.55;;;17.50;99.90;;;17.35;100.00;96991.44;5022189;28;20477;-36
2023/07/19 01:26:05;;;;;;;5.38;4.10;;;17.50;99.90;;;17.33;100.00;96988.00;5025458;28;20143;-37
2023/07/19 01:28:31;;;;;;;5.43;4.40;;;17.50;99.90;;;17.34;100.00;96992.38;5026792;28;20593;-37
2023/07/19 01:30:56;;;;;;;7.53;4.30;;;17.50;99.90;;;17.35;100.00;96991.44;5027905;28;20511;-37
2023/07/19 01:33:22;;;;;;;8.50;4.50;;;17.50;99.90;;;17.35;100.00;96993.22;5025704;28;20033;-37
2023/07/19 01:35:48;;;;;;;8.07;4.50;;;17.50;99.90;;;17.32;100.00;96996.97;5025168;28;20048;-36
2023/07/19 01:38:13;;;;;;;6.30;4.30;;;17.40;99.90;;;17.29;100.00;96988.34;5025962;28;20025;-37
2023/07/19 01:40:39;;;;;;;6.28;4.68;;;17.40;99.90;;;17.26;100.00;96986.72;5025082;28;20116;-37
2023/07/19 01:43:05;;;;;;;6.07;4.20;;;17.30;99.90;;;17.23;100.00;96981.63;5024065;28;21403;-37
2023/07/19 01:45:30;;;;;;;5.88;4.35;;;17.30;99.90;;;17.19;100.00;96985.47;5025316;28;20059;-37
2023/07/19 01:47:56;;;;;;;5.95;4.60;;;17.30;99.90;;;17.15;100.00;96978.66;5028189;28;20037;-38
2023/07/19 01:50:22;;;;;;;6.93;4.20;;;17.30;99.90;;;17.12;100.00;96976.19;5023599;28;20044;-36
2023/07/19 01:52:49;;;;;;;5.50;4.45;;;17.20;99.90;;;17.12;100.00;96978.84;5021612;28;20501;-36
2023/07/19 01:55:15;;;;;;;6.07;4.40;;;17.20;99.90;;;17.09;100.00;96982.59;5022893;28;20037;-37
2023/07/19 01:57:40;;;;;;;7.95;4.13;;;17.20;99.90;;;17.06;100.00;96985.47;5024719;28;20396;-36
2023/07/19 02:00:07;;;;;;;6.78;4.05;;;17.20;99.90;;;17.03;100.00;96987.50;5022285;28;20048;-39
2023/07/19 02:02:32;;;;;;;8.32;4.38;;;17.10;99.90;;;16.98;100.00;96988.69;5024970;28;20444;-37
2023/07/19 02:04:58;;;;;;;4.95;3.78;;;17.10;99.90;;;16.98;100.00;96993.16;5029188;28;20769;-36
2023/07/19 02:07:24;;;;;;;5.25;3.90;;;17.10;99.90;;;17.00;100.00;96991.25;5024060;28;20076;-36
2023/07/19 02:09:50;;;;;;;6.95;3.38;;;17.10;99.90;;;17.01;100.00;96987.59;5024677;28;20599;-36
2023/07/19 02:12:15;;;;;;;5.25;3.85;;;17.10;99.90;;;17.04;100.00;96986.56;5021377;28;20036;-37
2023/07/19 02:14:41;;;;;;;5.47;3.97;;;17.20;99.90;;;17.04;100.00;96986.56;5019451;28;20090;-37
2023/07/19 02:17:07;;;;;;;7.05;3.08;;;17.20;99.90;;;17.01;100.00;96989.41;5021695;28;20064;-37
2023/07/19 02:19:32;;;;;;;5.47;3.20;;;17.10;99.90;;;16.97;100.00;97002.94;5019612;28;20485;-37
2023/07/19 02:21:58;;;;;;;4.70;3.20;;;17.10;99.90;;;16.93;100.00;96997.94;5025998;28;20032;-36
2023/07/19 02:24:24;;;;;;;7.50;4.13;;;17.10;99.90;;;16.86;100.00;97005.50;5027177;28;20119;-37
2023/07/19 02:26:50;;;;;;;5.30;3.92;;;17.00;99.90;;;16.84;100.00;97007.41;5024517;28;20064;-36
2023/07/19 02:29:15;;;;;;;8.02;3.58;;;17.00;99.90;;;16.82;100.00;97006.66;5024882;28;20512;-37
2023/07/19 02:31:41;;;;;;;5.80;4.05;;;16.90;99.90;;;16.79;100.00;97009.50;5024047;28;20033;-37
2023/07/19 02:34:07;;;;;;;5.80;4.20;;;16.90;99.90;;;16.73;100.00;97008.13;5025477;28;20029;-37
2023/07/19 02:36:36;;;;;;;6.85;4.35;;;16.90;99.90;;;16.77;100.00;97006.94;5024726;28;20120;-36
2023/07/19 02:39:03;;;;;;;5.32;3.97;;;16.90;99.90;;;16.74;100.00;97008.97;5026004;28;20064;-38
2023/07/19 02:41:30;;;;;;;5.32;4.15;;;16.90;99.90;;;16.73;100.00;97017.94;5024768;28;20048;-36
2023/07/19 02:43:55;;;;;;;5.10;3.78;;;16.90;99.90;;;16.73;100.00;97008.13;5023770;28;20033;-36
2023/07/19 02:46:21;;;;;;;5.82;4.20;;;16.90;99.90;;;16.71;100.00;97010.03;5005409;28;20094;-36
2023/07/19 02:48:47;;;;;;;5.47;4.55;;;16.80;99.90;;;16.72;100.00;97003.75;5022439;28;20044;-36
2023/07/19 02:51:12;;;;;;;6.90;4.65;;;16.80;99.90;;;16.65;100.00;96998.94;5024380;28;20048;-36
2023/07/19 02:53:38;;;;;;;5.93;4.15;;;16.80;99.90;;;16.70;100.00;97012.81;5022758;28;20503;-37
2023/07/19 02:56:04;;;;;;;6.95;4.68;;;16.80;99.90;;;16.69;100.00;97019.06;5022888;28;20717;-36
2023/07/19 02:58:30;;;;;;;6.63;4.20;;;16.80;99.90;;;16.69;100.00;97024.41;5026832;28;20034;-37
2023/07/19 03:00:55;;;;;;;5.13;3.75;;;16.80;99.90;;;16.67;100.00;97026.31;5019517;28;20056;-37
2023/07/19 03:03:21;;;;;;;5.38;4.00;;;16.80;99.90;;;16.64;100.00;97023.88;5022544;28;20033;-36
2023/07/19 03:05:47;;;;;;;6.55;4.30;;;16.80;99.90;;;16.60;100.00;97033.88;5020708;28;20042;-40
2023/07/19 03:08:13;;;;;;;5.47;3.88;;;16.70;99.90;;;16.50;100.00;97014.16;5021982;28;20835;-38
2023/07/19 03:10:39;;;;;;;6.13;4.40;;;16.70;99.90;;;16.58;100.00;97027.78;5020882;28;20033;-37
2023/07/19 03:13:05;;;;;;;6.07;4.00;;;16.70;99.90;;;16.57;100.00;97036.75;5020346;28;20025;-37
2023/07/19 03:15:33;;;;;;;6.57;4.70;;;16.70;99.90;;;16.56;100.00;97035.91;5022439;28;20164;-36
2023/07/19 03:18:03;;;;;;;5.45;4.47;;;16.70;99.90;;;16.53;100.00;97038.75;5024469;28;20119;-38
2023/07/19 03:20:32;;;;;;;6.40;3.80;;;16.60;99.90;;;16.53;100.00;97041.41;5021669;28;20039;-37
2023/07/19 03:23:00;;;;;;;5.53;4.30;;;16.60;99.90;;;16.51;100.00;97037.13;5015948;28;20444;-37
2023/07/19 03:25:27;;;;;;;5.43;4.30;;;16.60;99.90;;;16.49;100.00;97044.38;5015447;28;20024;-36
2023/07/19 03:27:53;;;;;;;5.63;4.13;;;16.60;99.90;;;16.46;100.00;97047.25;5022324;28;20036;-37
2023/07/19 03:30:18;;;;;;;8.10;4.30;;;16.60;99.90;;;16.42;100.00;97039.47;5017181;28;20034;-36
2023/07/19 03:32:44;;;;;;;5.30;4.13;;;16.60;99.90;;;16.40;100.00;97038.72;5023533;28;20082;-37
2023/07/19 03:35:10;;;;;;;9.10;4.22;;;16.50;99.90;;;16.39;100.00;97042.31;5021397;28;20041;-37
2023/07/19 03:37:36;;;;;;;5.13;4.10;;;16.50;99.90;;;16.38;100.00;97043.28;5023219;28;20063;-36
2023/07/19 03:40:04;;;;;;;5.95;3.75;;;16.50;99.90;;;16.39;100.00;97044.13;5027767;28;20036;-37
2023/07/19 03:42:30;;;;;;;6.40;4.13;;;16.50;99.90;;;16.38;100.00;97045.09;5027826;28;20021;-37
2023/07/19 03:44:56;;;;;;;7.00;4.10;;;16.50;99.90;;;16.37;100.00;97048.72;5023706;28;20076;-38
2023/07/19 03:47:22;;;;;;;4.15;3.28;;;16.50;99.90;;;16.33;100.00;97045.41;5026203;28;20025;-36
2023/07/19 03:49:47;;;;;;;5.05;3.55;;;16.50;99.90;;;16.37;100.00;97056.69;5028944;28;20096;-37
2023/07/19 03:52:13;;;;;;;5.45;3.90;;;16.50;99.90;;;16.35;100.00;97054.13;5023627;28;20481;-36
2023/07/19 03:54:39;;;;;;;6.95;4.03;;;16.50;99.90;;;16.38;100.00;97061.06;5022847;28;20095;-37
2023/07/19 03:57:05;;;;;;;7.65;3.70;;;16.50;99.90;;;16.37;100.00;97059.34;5024723;28;20151;-37
2023/07/19 03:59:30;;;;;;;6.47;4.03;;;16.50;99.90;;;16.35;100.00;97063.94;5025855;28;20037;-37
2023/07/19 04:01:56;;;;;;;6.00;3.80;;;16.50;99.90;;;16.36;100.00;97057.63;5018707;28;20364;-36
2023/07/19 04:04:22;;;;;;;7.40;4.18;;;16.50;99.90;;;16.37;100.00;97054.88;5015748;28;21060;-36
2023/07/19 04:06:48;;;;;;;6.05;3.92;;;16.50;99.90;;;16.38;100.00;97064.59;5023117;28;20061;-36
2023/07/19 04:09:13;;;;;;;5.32;3.92;;;16.50;99.90;;;16.40;100.00;97059.13;5022824;28;20683;-36
2023/07/19 04:11:39;;;;;;;6.55;4.18;;;16.50;99.90;;;16.42;100.00;97065.25;5028447;28;20032;-37
2023/07/19 04:14:05;;;;;;;4.78;3.50;;;16.50;99.90;;;16.48;100.00;97064.81;5027736;28;20473;-37
2023/07/19 04:16:30;;;;;;;5.45;3.85;;;16.60;99.90;;;16.52;100.00;97068.13;5024582;28;20091;-36
2023/07/19 04:18:56;;;;;;;6.28;3.92;;;16.60;99.90;;;16.58;100.00;97065.91;5026638;28;20033;-37
2023/07/19 04:21:23;;;;;;;4.63;3.70;;;16.70;99.90;;;16.64;100.00;97063.81;5026839;28;20033;-37
2023/07/19 04:23:48;;;;;;;5.03;3.58;;;16.80;99.90;;;16.71;100.00;97065.09;5028401;28;20039;-37
2023/07/19 04:26:14;;;;;;;4.32;3.47;;;16.90;99.90;;;16.80;100.00;97064.47;5019553;28;20033;-37
2023/07/19 04:28:40;;;;;;;7.13;3.25;;;16.90;99.90;;;16.87;100.00;97065.81;5027815;28;20082;-37
2023/07/19 04:31:06;;;;;;;4.82;3.67;;;17.00;99.90;;;16.94;100.00;97061.78;5018100;28;20033;-38
2023/07/19 04:33:32;;;;;;;5.22;3.53;;;17.10;99.90;;;17.00;100.00;97059.66;5017067;28;20102;-36
2023/07/19 04:35:57;;;;;;;4.43;3.47;;;17.10;99.90;;;17.02;100.00;97065.72;5022410;28;20032;-39
2023/07/19 04:38:23;;;;;;;4.93;3.60;;;17.10;99.90;;;17.05;100.00;97068.16;5008132;28;20032;-36
2023/07/19 04:40:49;;;;;;;5.95;3.92;;;17.20;99.90;;;17.09;100.00;97072.34;5011816;28;20676;-37
2023/07/19 04:43:14;;;;;;;4.93;3.75;;;17.20;99.90;;;17.16;100.00;97063.81;5016724;28;20033;-37
2023/07/19 04:45:43;;;;;;;5.72;3.40;;;17.30;99.90;;;17.25;100.00;97062.31;5010455;28;20033;-36
2023/07/19 04:48:09;;;;;;;4.72;3.50;;;17.40;99.90;;;17.37;100.00;97060.59;5018151;28;20033;-38
2023/07/19 04:50:36;;;;;;;4.53;3.30;;;17.50;99.90;;;17.45;100.00;97054.75;5021093;28;20033;-39
2023/07/19 04:53:02;;;;;;;4.00;3.22;;;17.60;99.90;;;17.62;100.00;97059.75;5003073;28;20453;-39
2023/07/19 04:55:27;;;;;;;5.70;3.47;;;17.70;99.90;;;17.73;100.00;97048.31;5026202;28;20025;-39
2023/07/19 04:57:53;;;;;;;6.57;3.75;;;17.80;99.90;;;17.86;100.00;97045.66;5028342;28;20826;-38
2023/07/19 05:00:19;;;;;;;4.55;3.22;;;18.00;99.90;;;17.99;100.00;97049.13;5026176;28;20044;-38
2023/07/19 05:02:44;;;;;;;4.50;3.50;;;18.10;99.90;;;18.11;100.00;97050.91;5028094;28;20057;-40
2023/07/19 05:05:12;;;;;;;4.85;3.38;;;18.20;99.90;;;18.20;100.00;97052.06;5030556;28;20408;-38
2023/07/19 05:07:38;;;;;;;4.82;3.35;;;18.30;99.90;;;18.24;100.00;97047.34;5031535;28;20040;-38
2023/07/19 05:10:05;;;;;;;4.65;3.67;;;18.40;99.90;;;18.28;100.00;97035.47;5031887;28;20275;-39
2023/07/19 05:12:31;;;;;;;5.47;3.90;;;18.40;99.90;;;18.35;100.00;97044.72;5029580;28;20028;-39
2023/07/19 05:14:58;;;;;;;6.07;3.63;;;18.50;99.90;;;18.30;100.00;97037.06;5031521;28;20489;-39
2023/07/19 05:17:23;;;;;;;5.10;3.97;;;18.40;99.90;;;18.37;100.00;97034.78;5026348;28;20049;-39
2023/07/19 05:19:50;;;;;;;5.22;3.80;;;18.50;99.90;;;18.34;100.00;97015.47;5028026;28;20048;-41
2023/07/19 05:22:16;;;;;;;7.18;4.35;;;18.50;99.90;;;18.46;100.00;97035.91;5023353;28;20033;-40
2023/07/19 05:24:42;;;;;;;5.90;3.38;;;18.60;99.90;;;18.53;100.00;97031.81;5029449;28;20533;-38
2023/07/19 05:27:08;;;;;;;7.50;3.88;;;18.60;99.90;;;18.56;100.00;97033.44;5017403;28;20394;-39
2023/07/19 05:29:34;;;;;;;6.20;3.67;;;18.70;99.90;;;18.73;100.00;97035.66;5027388;28;20033;-40
2023/07/19 05:32:00;;;;;;;6.50;3.65;;;18.80;99.90;;;18.92;100.00;97042.31;5022924;28;20491;-41
2023/07/19 05:34:25;;;;;;;4.63;3.45;;;18.90;99.90;;;19.05;100.00;97035.91;5029106;28;20033;-44
2023/07/19 05:36:51;;;;;;;4.63;3.50;;;19.10;99.90;;;19.26;100.00;97037.91;5031404;28;20036;-41
2023/07/19 05:39:17;;;;;;;4.38;3.45;;;19.30;99.90;;;19.32;100.00;97020.53;5029018;28;20040;-41
2023/07/19 05:41:43;;;;;;;5.50;3.28;;;19.40;99.90;;;19.51;100.00;97038.66;5029287;28;20063;-38
2023/07/19 05:44:08;;;;;;;5.18;3.20;;;19.50;99.90;;;19.65;100.00;97041.09;5028385;28;20033;-40
2023/07/19 05:46:36;;;;;;;5.43;3.15;;;19.70;99.90;;;19.88;100.00;97033.06;5026783;28;20696;-40
2023/07/19 05:49:02;;;;;;;7.10;3.33;;;19.90;99.90;;;20.12;100.00;97043.63;5025831;28;20036;-40
2023/07/19 05:51:28;;;;;;;5.28;3.28;;;20.00;99.90;;;20.33;100.00;97036.50;5020181;28;20039;-39
2023/07/19 05:53:54;;;;;;;5.05;3.40;;;20.20;99.90;;;20.48;100.00;97038.88;5036751;22;20040;-36
2023/07/19 05:56:21;;;;;;;5.28;3.20;;;20.40;99.90;;;20.66;100.00;97044.59;5009721;28;20034;-36
2023/07/19 05:58:47;;;;;;;4.50;3.53;;;20.60;99.90;;;20.75;100.00;97046.47;5014994;28;20484;-37
2023/07/19 06:01:17;;;;;;;4.45;3.13;;;20.70;99.90;;;20.83;100.00;97046.66;5007865;28;20396;-37
2023/07/19 06:03:44;;;;;;;5.20;3.15;;;20.90;99.90;;;20.97;100.00;97051.72;4999354;22;1029094;-37
2023/07/19 06:06:10;;;;;;;5.72;3.28;;;21.00;99.90;;;21.04;100.00;97049.38;5032659;28;20028;-37
2023/07/19 06:08:37;;;;;;;6.78;3.22;;;21.10;99.90;;;21.17;100.00;97054.53;5034029;28;20036;-37
2023/07/19 06:11:02;;;;;;;5.38;3.30;;;21.20;99.90;;;21.35;100.00;97060.16;5036033;28;20297;-37
2023/07/19 06:13:28;;;;;;;4.05;2.83;;;21.30;99.90;;;21.49;99.61;97067.88;5034130;28;20507;-37
2023/07/19 06:15:56;;;;;;;6.20;3.22;;;21.50;99.90;;;21.52;100.00;97053.38;5029877;28;20045;-37
2023/07/19 06:18:23;;;;;;;5.38;2.92;;;21.60;99.90;;;21.73;100.00;97064.03;5035885;28;20021;-37
2023/07/19 06:20:49;;;;;;;5.03;2.85;;;21.70;99.90;;;21.87;100.00;97069.03;5033994;28;20190;-37
2023/07/19 06:23:14;;;;;;;5.85;3.00;;;21.80;99.90;;;21.94;98.45;97064.00;5034361;28;20236;-38
2023/07/19 06:25:42;;;;;;;4.13;2.78;;;21.90;99.90;;;22.08;99.24;97060.09;5036522;28;20047;-37
2023/07/19 06:28:08;;;;;;;7.03;3.63;;;22.00;99.90;;;22.11;98.05;97046.41;5035689;28;20037;-37
2023/07/19 06:30:33;;;;;;;5.35;3.35;;;22.10;99.90;;;22.29;100.00;97065.41;5032217;28;20107;-37
2023/07/19 06:32:59;;;;;;;3.38;2.55;;;22.20;99.90;;;22.39;99.40;97065.41;5037785;28;20075;-38
2023/07/19 06:35:25;;;;;;;5.07;2.80;;;22.30;99.90;;;22.59;99.10;97068.97;5036181;28;20021;-37
2023/07/19 06:37:51;;;;;;;7.85;3.58;;;22.50;99.90;;;22.69;96.69;97062.63;5025929;28;20083;-37
2023/07/19 06:40:16;;;;;;;4.70;3.13;;;22.60;99.90;;;22.85;91.60;97071.97;5029153;28;20033;-36
2023/07/19 06:42:43;;;;;;;5.50;2.90;;;22.70;99.90;;;22.99;88.83;97068.00;5036065;28;20142;-39
2023/07/19 06:45:09;;;;;;;5.13;3.03;;;22.80;99.90;;;23.11;86.78;97074.09;5033166;28;20090;-37
2023/07/19 06:47:35;;;;;;;5.03;3.10;;;22.90;99.90;;;23.21;87.81;97067.72;5036782;28;20029;-37
2023/07/19 06:50:01;;;;;;;6.03;3.22;;;23.10;99.90;;;23.25;82.43;97068.28;5036193;28;20041;-37
2023/07/19 06:52:27;;;;;;;6.05;3.00;;;23.20;99.90;;;23.37;87.63;97072.50;5033111;28;20033;-38
2023/07/19 06:54:52;;;;;;;8.07;3.58;;;23.20;99.90;;;23.32;78.85;97077.47;5034002;28;20409;-37
2023/07/19 06:57:21;;;;;;;4.75;3.10;;;23.30;99.90;;;23.32;79.83;97068.56;5036145;28;20049;-37
2023/07/19 06:59:49;;;;;;;8.50;3.35;;;23.30;99.90;;;23.34;80.76;97082.72;5033281;28;20208;-38
2023/07/19 07:02:18;;;;;;;3.13;2.72;;;23.30;99.90;;;23.40;81.90;97077.63;5034665;28;20033;-37
2023/07/19 07:04:45;;;;;;;5.85;2.88;;;23.30;99.90;;;23.51;85.81;97083.81;5033791;28;20029;-37
2023/07/19 07:07:11;;;;;;;5.43;3.15;;;23.40;99.90;;;23.52;87.05;97082.81;5033395;28;20184;-37
2023/07/19 07:09:37;;;;;;;4.88;3.10;;;23.40;99.90;;;23.60;86.00;97089.16;5040045;28;20025;-37
2023/07/19 07:12:04;;;;;;;5.30;3.38;;;23.50;99.90;;;23.64;85.77;97090.56;5029163;28;20469;-37
2023/07/19 07:14:30;;;;;;;4.68;3.35;;;23.50;99.90;;;23.62;76.82;97087.19;5039499;28;20028;-38
2023/07/19 07:16:55;;;;;;;4.63;2.83;;;23.60;99.90;;;23.69;74.51;97075.81;5039662;28;20405;-37
2023/07/19 07:19:21;;;;;;;3.75;2.97;;;23.60;99.90;;;23.76;80.28;97076.91;5036695;28;20146;-37
2023/07/19 07:21:47;;;;;;;6.18;2.90;;;23.60;99.90;;;23.88;72.00;97080.31;5038439;28;20059;-38
2023/07/19 07:24:12;;;;;;;5.85;2.70;;;23.70;99.90;;;23.98;78.62;97076.59;5037025;28;20094;-38
2023/07/19 07:26:38;;;;;;;4.07;2.75;;;23.80;99.90;;;24.15;68.02;97077.63;5034734;28;20511;-37
2023/07/19 07:29:04;;;;;;;4.60;2.80;;;23.90;99.90;;;24.11;60.54;97078.94;5037627;28;20040;-37
2023/07/19 07:31:31;;;;;;;4.82;2.70;;;24.00;99.90;;;24.27;66.69;97080.16;5039527;28;20021;-37
2023/07/19 07:33:58;;;;;;;5.72;3.03;;;24.00;99.90;;;24.35;76.57;97080.22;5037931;28;20061;-36
2023/07/19 07:36:24;;;;;;;3.33;2.55;;;24.10;99.90;;;24.38;72.03;97088.00;5038042;28;20170;-36
2023/07/19 07:38:50;;;;;;;4.57;2.60;;;24.20;99.90;;;24.29;81.36;97078.16;5037213;28;20033;-36
2023/07/19 07:41:16;;;;;;;7.47;2.45;;;24.20;99.90;;;24.19;63.79;97084.44;5037862;28;20354;-36
2023/07/19 07:43:42;;;;;;;6.88;2.28;;;24.10;99.90;;;24.18;63.55;97085.44;5034198;28;20033;-36
2023/07/19 07:46:07;;;;;;;8.85;2.22;;;24.10;99.90;;;24.28;56.57;97089.91;5032258;28;20091;-37
2023/07/19 07:48:33;;;;;;;5.05;2.30;;;24.20;99.90;;;24.37;52.96;97091.69;5038922;28;20028;-37
2023/07/19 07:50:59;;;;;;;4.28;2.13;;;24.30;99.80;;;24.48;54.12;97086.13;5038165;28;20028;-39
2023/07/19 07:53:25;;;;;;;4.30;2.00;;;24.40;99.60;;;24.63;55.00;97091.03;5027251;28;20135;-36
2023/07/19 07:55:51;;;;;;;5.85;2.35;;;24.50;99.90;;;24.75;52.59;97096.03;5036735;28;20281;-37
2023/07/19 07:58:17;;;;;;;3.13;1.73;;;24.70;99.40;;;24.78;51.54;97076.00;5025587;28;20041;-38
2023/07/19 08:00:45;;;;;;;3.85;1.75;;;24.80;99.10;;;25.00;46.06;97092.72;5035062;28;20052;-37
2023/07/19 08:03:12;;;;;;;4.32;1.83;;;24.80;96.10;;;25.04;47.47;97094.97;5035430;28;20063;-38
2023/07/19 08:05:38;;;;;;;4.47;1.55;;;25.00;95.30;;;25.13;46.22;97094.03;5038243;28;20112;-37
2023/07/19 08:08:06;;;;;;;3.42;1.73;;;25.10;95.50;;;25.20;43.75;97107.75;5037046;28;20485;-36
2023/07/19 08:10:33;;;;;;;4.78;1.90;;;25.10;93.50;;;25.26;45.77;97099.06;5039455;28;20036;-37
2023/07/19 08:12:58;;;;;;;3.40;1.65;;;25.20;93.40;;;25.31;47.90;97091.34;5036816;28;20548;-36
2023/07/19 08:15:24;;;;;;;4.07;1.98;;;25.20;95.20;;;25.38;50.60;97113.16;5034030;28;20147;-38
2023/07/19 08:17:52;;;;;;;4.80;2.22;;;25.30;97.10;;;25.22;43.96;97113.00;5037973;28;20064;-37
2023/07/19 08:20:18;;;;;;;4.80;1.90;;;25.20;92.00;;;25.20;45.85;97098.81;5033734;28;20033;-36
2023/07/19 08:22:43;;;;;;;1.67;1.50;;;25.20;94.00;;;25.30;44.34;97108.56;5035331;28;20044;-36
2023/07/19 08:25:09;;;;;;;2.80;1.85;;;25.20;92.40;;;25.28;43.78;97097.03;5025815;28;20501;-36
2023/07/19 08:27:35;;;;;;;6.38;1.80;;;25.20;91.20;;;25.39;47.26;97100.50;5038158;28;20036;-36
2023/07/19 08:30:06;;;;;;;3.33;1.85;;;25.30;94.10;;;25.48;45.21;97099.56;5033509;28;20060;-36
2023/07/19 08:32:33;;;;;;;3.53;1.80;;;25.30;92.30;;;25.50;44.23;97098.41;5028298;28;20025;-37
2023/07/19 08:35:02;;;;;;;6.53;1.80;;;25.40;91.80;;;25.60;48.85;97087.50;5038645;28;20091;-38
2023/07/19 08:37:29;;;;;;;2.65;1.70;;;25.40;93.60;;;25.70;44.63;97090.09;5037005;28;20121;-38
2023/07/19 08:39:54;;;;;;;3.83;1.70;;;25.50;90.70;;;25.74;43.37;97096.03;5037935;28;20055;-37
2023/07/19 08:42:20;;;;;;;3.08;1.83;;;25.50;91.00;;;25.74;41.35;97096.88;5037209;28;20465;-38
2023/07/19 08:44:48;;;;;;;3.38;1.40;;;25.60;87.50;;;25.75;44.35;97095.84;5036719;28;20378;-36
2023/07/19 08:47:16;;;;;;;2.53;1.50;;;25.60;91.30;;;25.79;39.57;97089.13;5034563;28;20505;-36
2023/07/19 08:49:42;;;;;;;1.83;1.48;;;25.70;84.80;;;25.87;42.33;97086.47;5036536;28;20033;-37
2023/07/19 08:52:08;;;;;;;3.03;1.80;;;25.70;87.80;;;25.91;41.78;97097.78;5034298;28;20108;-36
2023/07/19 08:54:34;;;;;;;2.38;1.40;;;25.80;89.80;;;25.83;39.53;97070.75;5031973;28;20546;-37
2023/07/19 08:57:03;;;;;;;3.65;1.60;;;25.80;84.70;;;25.94;42.55;97085.88;5037058;28;20033;-37
2023/07/19 08:59:29;;;;;;;4.72;1.50;;;25.80;87.70;;;25.93;40.90;97068.78;5035479;28;20064;-38
2023/07/19 09:01:55;;;;;;;2.13;1.40;;;25.80;85.30;;;25.85;38.54;97076.84;5037236;28;20041;-38
2023/07/19 09:04:20;;;;;;;5.50;1.90;;;25.90;78.70;;;25.85;38.01;97074.97;5036584;28;20100;-36
2023/07/19 09:06:48;;;;;;;3.15;1.60;;;25.80;79.60;;;25.95;43.25;97065.94;5038156;28;20368;-37
2023/07/19 09:09:16;;;;;;;1.75;1.60;;;25.80;86.60;;;26.00;41.99;97077.09;5036562;28;20298;-37
2023/07/19 09:11:46;;;;;;;3.80;1.40;;;25.90;85.30;;;26.02;40.17;97065.16;5033526;28;20025;-37
2023/07/19 09:14:12;;;;;;;3.85;1.60;;;25.90;82.10;;;26.12;39.48;97066.88;5029497;28;20032;-39
2023/07/19 09:16:40;;;;;;;2.15;1.60;;;25.90;81.90;;;26.20;38.44;97058.78;5033016;28;20106;-37
2023/07/19 09:19:07;;;;;;;2.25;1.60;;;26.10;79.40;;;26.27;37.39;97051.72;5036140;28;20033;-37
2023/07/19 09:21:37;;;;;;;2.67;1.83;;;26.10;78.50;;;26.33;38.91;97059.19;5036009;28;20043;-39
2023/07/19 09:24:04;;;;;;;4.90;1.80;;;26.20;79.80;;;26.40;35.65;97060.22;5037124;28;20040;-40
2023/07/19 09:26:50;;;;;;;4.93;1.52;;;26.30;75.00;;;26.33;36.44;97053.78;5035769;28;20029;-39
2023/07/19 09:29:17;;;;;;;3.55;1.83;;;26.20;74.20;;;26.38;36.35;97059.53;5034228;28;20036;-39
2023/07/19 09:32:09;;;;;;;2.88;1.85;;;26.20;74.30;;;26.40;38.24;97048.56;5026445;28;20120;-37
2023/07/19 09:34:37;;;;;;;2.73;1.80;;;26.30;76.20;;;26.45;39.65;97049.75;5033122;28;20029;-39
2023/07/19 09:37:03;;;;;;;3.70;1.80;;;26.40;77.90;;;26.49;35.00;97058.38;5036142;28;20429;-38
2023/07/19 09:39:30;;;;;;;3.65;1.70;;;26.40;75.20;;;26.55;36.35;97048.75;5036912;28;20455;-37
2023/07/19 09:41:57;;;;;;;2.38;1.60;;;26.40;74.00;;;26.53;35.75;97045.38;5034247;28;20451;-37
2023/07/19 09:44:23;;;;;;;2.08;1.45;;;26.40;72.70;;;26.45;34.76;97052.47;5031639;28;21267;-37
2023/07/19 09:46:49;;;;;;;5.10;1.55;;;26.40;70.30;;;26.46;34.55;97058.72;5024379;28;20082;-38
2023/07/19 09:49:15;;;;;;;2.22;1.60;;;26.40;71.30;;;26.41;35.04;97037.56;5035149;28;20362;-37
2023/07/19 09:51:43;;;;;;;3.45;1.60;;;26.40;71.40;;;26.47;34.90;97052.31;5036831;28;20029;-37
2023/07/19 09:54:11;;;;;;;2.22;1.60;;;26.40;69.80;;;26.47;36.24;97049.59;5037639;28;20028;-37
2023/07/19 09:56:38;;;;;;;5.15;1.58;;;26.40;71.70;;;26.58;36.56;97043.03;5036641;28;20033;-37
2023/07/19 09:59:09;;;;;;;1.85;1.30;;;26.40;72.80;;;26.68;36.10;97038.31;5035351;28;20316;-38
2023/07/19 10:01:35;;;;;;;3.13;1.40;;;26.50;71.70;;;26.75;35.85;97023.13;5030276;28;20029;-39
2023/07/19 10:04:01;;;;;;;3.05;1.60;;;26.70;71.50;;;26.84;35.07;97040.22;5035473;28;20738;-37
2023/07/19 10:06:30;;;;;;;4.13;1.52;;;26.70;69.10;;;26.85;34.74;97029.22;5033267;28;20055;-39
2023/07/19 10:09:24;;;;;;;3.05;1.77;;;26.80;68.70;;;26.93;35.93;97038.34;5037994;28;20043;-37
2023/07/19 10:11:50;;;;;;;5.53;1.70;;;26.80;70.20;;;26.95;36.09;97030.91;5033693;28;20055;-38